CheckWX is a tool to help pilots better visualize weather data.  It is not intended as a substitute for an official pre-flight weather briefing.

07:34:34 UTC

LLHA TAF
Haifa International Airport
Haifa, Israel
TAF LLHA 060512Z 0606/0706 VRB04KT 9999 SCT040 BECMG 0607/0610 35013KT PROB40 0610/0618 9999 -RA BKN035 FM061800 36006KT 9999 SCT035 PROB40 0700/0706 VRB04KT 7000 -RA BKN023 TX19/0612Z TN12/0704Z

Dec-6@
06:00 UTC

Dec-6 @ 06:00 UTC

Dec-6@
07:00 UTC

Dec-6 @ 07:00 UTC

TAF LLHA 060512Z 0606/0706 VRB04KT 9999 SCT040

Expired

Wind
  • Variable at 4 KTS
Cloud Levels
  • Scattered at 4,000' AGL

Dec-6@
07:00 UTC

Dec-6 @ 07:00 UTC

Dec-6@
18:00 UTC

Dec-6 @ 18:00 UTC

BECMG 0607/0610 35013KT

Becoming

Becoming Conditions expected by Fri, Dec 6, 2019 @ 10:00 UTC

Wind
  • 350° at 13 KTS
Cloud Levels
  • Scattered at 4,000' AGL

Dec-6@
10:00 UTC

Dec-6 @ 10:00 UTC

Dec-6@
18:00 UTC

Dec-6 @ 18:00 UTC

PROB40 0610/0618 9999 -RA BKN035

Probable - 40% Likelihood

Probable - 40% Likelihood during this time.

Conditions
Light Rain
Cloud Levels
  • Broken at 3,500' AGL

Dec-6@
18:00 UTC

Dec-6 @ 18:00 UTC

Dec-7@
06:00 UTC

Dec-7 @ 06:00 UTC

FM061800 36006KT 9999 SCT035

From

From Standard forecast or significant change

Wind
  • 360° at 6 KTS
Cloud Levels
  • Scattered at 3,500' AGL

Dec-7@
00:00 UTC

Dec-7 @ 00:00 UTC

Dec-7@
06:00 UTC

Dec-7 @ 06:00 UTC

PROB40 0700/0706 VRB04KT 7000 -RA BKN023 TX19/0612Z TN12/0704Z

Probable - 40% Likelihood

Probable - 40% Likelihood during this time.

Wind
  • Variable at 4 KTS
Conditions
Light Rain
Cloud Levels
  • Broken at 2,300' AGL